sensor_id;sensor_type;location;lat;lon;timestamp;P1;durP1;ratioP1;P2;durP2;ratioP2
19560;SDS011;9927;47.792;10.616;2023-02-28T04:01:41;25.97;;;13.60;;
19560;SDS011;9927;47.792;10.616;2023-02-28T04:04:11;22.80;;;13.17;;
19560;SDS011;9927;47.792;10.616;2023-02-28T04:06:40;15.10;;;12.70;;
19560;SDS011;9927;47.792;10.616;2023-02-28T04:09:09;22.57;;;13.53;;
19560;SDS011;9927;47.792;10.616;2023-02-28T04:11:47;24.13;;;13.87;;
19560;SDS011;9927;47.792;10.616;2023-02-28T04:14:23;24.53;;;14.27;;
19560;SDS011;9927;47.792;10.616;2023-02-28T04:16:50;25.27;;;13.80;;
19560;SDS011;9927;47.792;10.616;2023-02-28T04:19:19;23.10;;;14.03;;
19560;SDS011;9927;47.792;10.616;2023-02-28T04:21:50;25.47;;;14.00;;
19560;SDS011;9927;47.792;10.616;2023-02-28T04:24:19;25.40;;;14.83;;
19560;SDS011;9927;47.792;10.616;2023-02-28T04:26:52;22.73;;;12.90;;
19560;SDS011;9927;47.792;10.616;2023-02-28T04:29:24;26.80;;;14.73;;
19560;SDS011;9927;47.792;10.616;2023-02-28T04:31:59;24.47;;;14.07;;
19560;SDS011;9927;47.792;10.616;2023-02-28T04:34:28;22.53;;;12.83;;
19560;SDS011;9927;47.792;10.616;2023-02-28T04:36:56;28.67;;;14.00;;
19560;SDS011;9927;47.792;10.616;2023-02-28T04:39:40;33.93;;;15.07;;
19560;SDS011;9927;47.792;10.616;2023-02-28T04:42:08;23.43;;;14.73;;
19560;SDS011;9927;47.792;10.616;2023-02-28T04:44:36;24.90;;;13.90;;
19560;SDS011;9927;47.792;10.616;2023-02-28T04:47:03;27.90;;;14.87;;
19560;SDS011;9927;47.792;10.616;2023-02-28T04:49:31;22.43;;;14.20;;
19560;SDS011;9927;47.792;10.616;2023-02-28T04:51:59;34.13;;;15.00;;
19560;SDS011;9927;47.792;10.616;2023-02-28T04:54:26;26.90;;;13.93;;
19560;SDS011;9927;47.792;10.616;2023-02-28T04:56:55;25.50;;;14.27;;
19560;SDS011;9927;47.792;10.616;2023-02-28T04:59:22;25.40;;;14.17;;
19560;SDS011;9927;47.792;10.616;2023-02-28T05:01:49;26.97;;;14.73;;
19560;SDS011;9927;47.792;10.616;2023-02-28T05:04:16;26.13;;;14.27;;
19560;SDS011;9927;47.792;10.616;2023-02-28T05:06:44;38.83;;;15.93;;
19560;SDS011;9927;47.792;10.616;2023-02-28T05:09:11;24.60;;;14.17;;
19560;SDS011;9927;47.792;10.616;2023-02-28T05:11:39;28.80;;;15.57;;
19560;SDS011;9927;47.792;10.616;2023-02-28T05:14:09;28.93;;;16.10;;
19560;SDS011;9927;47.792;10.616;2023-02-28T05:16:39;26.10;;;14.70;;
19560;SDS011;9927;47.792;10.616;2023-02-28T05:19:06;24.77;;;14.30;;
19560;SDS011;9927;47.792;10.616;2023-02-28T05:21:34;25.33;;;14.77;;
19560;SDS011;9927;47.792;10.616;2023-02-28T05:24:08;25.53;;;15.60;;
19560;SDS011;9927;47.792;10.616;2023-02-28T05:26:41;27.47;;;14.83;;
19560;SDS011;9927;47.792;10.616;2023-02-28T05:29:09;34.53;;;14.97;;
19560;SDS011;9927;47.792;10.616;2023-02-28T05:31:37;22.93;;;14.13;;
19560;SDS011;9927;47.792;10.616;2023-02-28T05:34:05;29.37;;;16.87;;
19560;SDS011;9927;47.792;10.616;2023-02-28T05:36:32;28.90;;;14.67;;
19560;SDS011;9927;47.792;10.616;2023-02-28T05:39:00;27.67;;;15.30;;
19560;SDS011;9927;47.792;10.616;2023-02-28T05:41:27;34.50;;;15.97;;
19560;SDS011;9927;47.792;10.616;2023-02-28T05:43:55;27.33;;;15.00;;
19560;SDS011;9927;47.792;10.616;2023-02-28T05:46:24;26.50;;;14.33;;
19560;SDS011;9927;47.792;10.616;2023-02-28T05:48:51;20.73;;;14.77;;
19560;SDS011;9927;47.792;10.616;2023-02-28T05:51:18;30.57;;;16.27;;
19560;SDS011;9927;47.792;10.616;2023-02-28T05:53:45;29.03;;;16.07;;
19560;SDS011;9927;47.792;10.616;2023-02-28T05:56:14;32.13;;;16.77;;
19560;SDS011;9927;47.792;10.616;2023-02-28T05:58:42;28.80;;;16.40;;
19560;SDS011;9927;47.792;10.616;2023-02-28T06:01:19;28.83;;;16.77;;
19560;SDS011;9927;47.792;10.616;2023-02-28T06:03:49;26.87;;;16.03;;
19560;SDS011;9927;47.792;10.616;2023-02-28T06:06:16;24.77;;;15.97;;
19560;SDS011;9927;47.792;10.616;2023-02-28T06:08:44;30.60;;;17.33;;
19560;SDS011;9927;47.792;10.616;2023-02-28T06:11:12;29.73;;;16.53;;
19560;SDS011;9927;47.792;10.616;2023-02-28T06:13:39;28.60;;;16.53;;
19560;SDS011;9927;47.792;10.616;2023-02-28T06:16:08;27.80;;;16.87;;
19560;SDS011;9927;47.792;10.616;2023-02-28T06:18:37;28.60;;;15.67;;
19560;SDS011;9927;47.792;10.616;2023-02-28T06:21:05;26.90;;;15.40;;
19560;SDS011;9927;47.792;10.616;2023-02-28T06:23:32;29.13;;;17.27;;
19560;SDS011;9927;47.792;10.616;2023-02-28T06:25:59;31.40;;;16.77;;
19560;SDS011;9927;47.792;10.616;2023-02-28T06:28:27;27.87;;;15.97;;
19560;SDS011;9927;47.792;10.616;2023-02-28T06:30:54;29.37;;;17.43;;
19560;SDS011;9927;47.792;10.616;2023-02-28T06:33:21;23.33;;;16.13;;
19560;SDS011;9927;47.792;10.616;2023-02-28T06:35:51;28.73;;;17.40;;
19560;SDS011;9927;47.792;10.616;2023-02-28T06:38:19;29.77;;;16.70;;
19560;SDS011;9927;47.792;10.616;2023-02-28T06:40:52;26.73;;;16.87;;
19560;SDS011;9927;47.792;10.616;2023-02-28T06:43:24;33.27;;;16.67;;
19560;SDS011;9927;47.792;10.616;2023-02-28T06:45:54;26.80;;;16.30;;
19560;SDS011;9927;47.792;10.616;2023-02-28T06:48:22;31.27;;;16.77;;
19560;SDS011;9927;47.792;10.616;2023-02-28T06:50:50;32.67;;;18.00;;
19560;SDS011;9927;47.792;10.616;2023-02-28T06:53:17;34.83;;;18.03;;
19560;SDS011;9927;47.792;10.616;2023-02-28T06:55:44;27.63;;;15.77;;
19560;SDS011;9927;47.792;10.616;2023-02-28T06:58:12;33.27;;;17.40;;
19560;SDS011;9927;47.792;10.616;2023-02-28T07:00:42;28.10;;;18.03;;
19560;SDS011;9927;47.792;10.616;2023-02-28T07:03:10;25.30;;;17.43;;
19560;SDS011;9927;47.792;10.616;2023-02-28T07:05:39;27.37;;;17.47;;
19560;SDS011;9927;47.792;10.616;2023-02-28T07:08:06;27.77;;;16.57;;
19560;SDS011;9927;47.792;10.616;2023-02-28T07:10:34;33.87;;;16.83;;
19560;SDS011;9927;47.792;10.616;2023-02-28T07:13:03;32.33;;;16.77;;
19560;SDS011;9927;47.792;10.616;2023-02-28T07:15:31;31.40;;;17.20;;
19560;SDS011;9927;47.792;10.616;2023-02-28T07:17:58;27.30;;;17.10;;
19560;SDS011;9927;47.792;10.616;2023-02-28T07:20:26;22.40;;;16.20;;
19560;SDS011;9927;47.792;10.616;2023-02-28T07:22:53;30.93;;;16.80;;
19560;SDS011;9927;47.792;10.616;2023-02-28T07:25:23;28.33;;;17.00;;
19560;SDS011;9927;47.792;10.616;2023-02-28T07:27:55;30.17;;;16.93;;
19560;SDS011;9927;47.792;10.616;2023-02-28T07:30:23;27.83;;;16.83;;
19560;SDS011;9927;47.792;10.616;2023-02-28T07:32:50;23.03;;;15.50;;
19560;SDS011;9927;47.792;10.616;2023-02-28T07:35:17;38.07;;;16.60;;
19560;SDS011;9927;47.792;10.616;2023-02-28T07:37:45;29.13;;;16.87;;
19560;SDS011;9927;47.792;10.616;2023-02-28T07:40:13;24.87;;;16.97;;
19560;SDS011;9927;47.792;10.616;2023-02-28T07:42:41;31.00;;;16.40;;
19560;SDS011;9927;47.792;10.616;2023-02-28T07:45:09;43.17;;;18.40;;
19560;SDS011;9927;47.792;10.616;2023-02-28T07:47:38;42.87;;;19.00;;
19560;SDS011;9927;47.792;10.616;2023-02-28T07:50:06;36.63;;;18.10;;
19560;SDS011;9927;47.792;10.616;2023-02-28T07:52:36;29.03;;;16.13;;
19560;SDS011;9927;47.792;10.616;2023-02-28T07:55:07;30.13;;;17.67;;
19560;SDS011;9927;47.792;10.616;2023-02-28T07:57:35;31.53;;;17.10;;
19560;SDS011;9927;47.792;10.616;2023-02-28T08:00:04;32.30;;;17.63;;
19560;SDS011;9927;47.792;10.616;2023-02-28T08:02:33;25.60;;;16.77;;
19560;SDS011;9927;47.792;10.616;2023-02-28T08:05:04;33.83;;;17.83;;
19560;SDS011;9927;47.792;10.616;2023-02-28T08:07:32;30.77;;;16.43;;
19560;SDS011;9927;47.792;10.616;2023-02-28T08:10:00;32.20;;;17.60;;
19560;SDS011;9927;47.792;10.616;2023-02-28T08:12:27;26.37;;;15.80;;
19560;SDS011;9927;47.792;10.616;2023-02-28T08:14:54;25.57;;;16.73;;
19560;SDS011;9927;47.792;10.616;2023-02-28T08:17:21;36.20;;;17.87;;
19560;SDS011;9927;47.792;10.616;2023-02-28T08:19:49;44.00;;;19.97;;
19560;SDS011;9927;47.792;10.616;2023-02-28T08:22:16;40.73;;;19.37;;
19560;SDS011;9927;47.792;10.616;2023-02-28T08:24:44;29.20;;;17.17;;
19560;SDS011;9927;47.792;10.616;2023-02-28T08:27:11;35.27;;;18.30;;
19560;SDS011;9927;47.792;10.616;2023-02-28T08:29:38;39.43;;;19.00;;
19560;SDS011;9927;47.792;10.616;2023-02-28T08:32:06;44.63;;;19.43;;
19560;SDS011;9927;47.792;10.616;2023-02-28T08:34:49;32.30;;;18.03;;
19560;SDS011;9927;47.792;10.616;2023-02-28T08:37:16;34.90;;;18.77;;
19560;SDS011;9927;47.792;10.616;2023-02-28T08:39:43;46.53;;;20.37;;
19560;SDS011;9927;47.792;10.616;2023-02-28T08:42:10;33.23;;;17.77;;
19560;SDS011;9927;47.792;10.616;2023-02-28T08:44:38;29.87;;;17.10;;
19560;SDS011;9927;47.792;10.616;2023-02-28T08:47:05;32.83;;;17.90;;
19560;SDS011;9927;47.792;10.616;2023-02-28T08:49:32;34.87;;;17.27;;
19560;SDS011;9927;47.792;10.616;2023-02-28T08:51:59;31.20;;;16.70;;
19560;SDS011;9927;47.792;10.616;2023-02-28T08:54:26;27.13;;;16.77;;
19560;SDS011;9927;47.792;10.616;2023-02-28T08:56:57;32.90;;;18.03;;
19560;SDS011;9927;47.792;10.616;2023-02-28T08:59:24;31.57;;;17.70;;
19560;SDS011;9927;47.792;10.616;2023-02-28T09:01:51;31.60;;;17.40;;
19560;SDS011;9927;47.792;10.616;2023-02-28T09:04:19;33.27;;;17.43;;
19560;SDS011;9927;47.792;10.616;2023-02-28T09:06:47;31.83;;;17.67;;
19560;SDS011;9927;47.792;10.616;2023-02-28T09:09:15;34.60;;;18.40;;
19560;SDS011;9927;47.792;10.616;2023-02-28T09:11:42;30.33;;;16.60;;
19560;SDS011;9927;47.792;10.616;2023-02-28T09:14:10;34.73;;;21.50;;
19560;SDS011;9927;47.792;10.616;2023-02-28T09:16:37;39.03;;;19.50;;
19560;SDS011;9927;47.792;10.616;2023-02-28T09:19:04;25.50;;;17.80;;
19560;SDS011;9927;47.792;10.616;2023-02-28T09:21:31;30.73;;;18.43;;
19560;SDS011;9927;47.792;10.616;2023-02-28T09:23:58;30.13;;;17.43;;
19560;SDS011;9927;47.792;10.616;2023-02-28T09:26:26;31.03;;;17.90;;
19560;SDS011;9927;47.792;10.616;2023-02-28T09:29:08;28.43;;;17.37;;
19560;SDS011;9927;47.792;10.616;2023-02-28T09:31:35;29.07;;;17.43;;
19560;SDS011;9927;47.792;10.616;2023-02-28T09:34:03;24.03;;;16.67;;
19560;SDS011;9927;47.792;10.616;2023-02-28T09:36:30;35.57;;;18.47;;
19560;SDS011;9927;47.792;10.616;2023-02-28T09:39:10;27.30;;;16.87;;
19560;SDS011;9927;47.792;10.616;2023-02-28T09:41:40;27.93;;;16.47;;
19560;SDS011;9927;47.792;10.616;2023-02-28T09:44:25;28.73;;;17.07;;
19560;SDS011;9927;47.792;10.616;2023-02-28T09:46:54;33.63;;;18.13;;
19560;SDS011;9927;47.792;10.616;2023-02-28T09:49:31;34.47;;;17.87;;
19560;SDS011;9927;47.792;10.616;2023-02-28T09:52:06;25.07;;;17.50;;
19560;SDS011;9927;47.792;10.616;2023-02-28T09:54:37;33.13;;;18.10;;
19560;SDS011;9927;47.792;10.616;2023-02-28T09:57:07;26.60;;;18.07;;
19560;SDS011;9927;47.792;10.616;2023-02-28T10:02:58;36.77;;;18.43;;
19560;SDS011;9927;47.792;10.616;2023-02-28T10:08:16;28.63;;;17.90;;
19560;SDS011;9927;47.792;10.616;2023-02-28T10:10:51;33.80;;;18.37;;
19560;SDS011;9927;47.792;10.616;2023-02-28T10:13:25;31.17;;;18.90;;
19560;SDS011;9927;47.792;10.616;2023-02-28T10:16:01;30.63;;;18.97;;
19560;SDS011;9927;47.792;10.616;2023-02-28T10:18:47;35.70;;;19.93;;
19560;SDS011;9927;47.792;10.616;2023-02-28T10:21:23;38.13;;;20.47;;
19560;SDS011;9927;47.792;10.616;2023-02-28T10:24:43;33.37;;;18.67;;
19560;SDS011;9927;47.792;10.616;2023-02-28T10:26:47;26.13;;;19.53;;
19560;SDS011;9927;47.792;10.616;2023-02-28T10:29:19;29.97;;;18.47;;
19560;SDS011;9927;47.792;10.616;2023-02-28T10:31:46;29.60;;;19.37;;
19560;SDS011;9927;47.792;10.616;2023-02-28T10:34:13;71.10;;;21.67;;
19560;SDS011;9927;47.792;10.616;2023-02-28T10:36:41;37.23;;;20.10;;
19560;SDS011;9927;47.792;10.616;2023-02-28T10:44:48;35.47;;;20.00;;
19560;SDS011;9927;47.792;10.616;2023-02-28T10:47:17;29.90;;;19.33;;
19560;SDS011;9927;47.792;10.616;2023-02-28T10:49:49;33.23;;;19.07;;
19560;SDS011;9927;47.792;10.616;2023-02-28T10:52:38;29.23;;;18.43;;
19560;SDS011;9927;47.792;10.616;2023-02-28T10:55:22;28.00;;;18.07;;
19560;SDS011;9927;47.792;10.616;2023-02-28T10:57:52;33.27;;;18.70;;
19560;SDS011;9927;47.792;10.616;2023-02-28T11:00:21;32.67;;;19.37;;
19560;SDS011;9927;47.792;10.616;2023-02-28T11:02:49;26.50;;;18.23;;
19560;SDS011;9927;47.792;10.616;2023-02-28T11:05:30;34.37;;;20.17;;
19560;SDS011;9927;47.792;10.616;2023-02-28T11:10:33;36.60;;;19.53;;
19560;SDS011;9927;47.792;10.616;2023-02-28T11:13:01;34.17;;;19.80;;
19560;SDS011;9927;47.792;10.616;2023-02-28T11:15:30;31.70;;;19.33;;
19560;SDS011;9927;47.792;10.616;2023-02-28T11:18:01;29.53;;;19.20;;
19560;SDS011;9927;47.792;10.616;2023-02-28T11:20:38;29.47;;;19.60;;
19560;SDS011;9927;47.792;10.616;2023-02-28T11:23:06;27.07;;;18.70;;
19560;SDS011;9927;47.792;10.616;2023-02-28T11:25:40;33.33;;;19.50;;
19560;SDS011;9927;47.792;10.616;2023-02-28T11:28:39;27.37;;;19.57;;
19560;SDS011;9927;47.792;10.616;2023-02-28T11:33:48;33.37;;;20.13;;
19560;SDS011;9927;47.792;10.616;2023-02-28T11:38:53;30.10;;;20.60;;
19560;SDS011;9927;47.792;10.616;2023-02-28T11:41:30;40.67;;;21.80;;
19560;SDS011;9927;47.792;10.616;2023-02-28T11:46:47;31.63;;;18.90;;
19560;SDS011;9927;47.792;10.616;2023-02-28T11:49:32;38.30;;;21.60;;
19560;SDS011;9927;47.792;10.616;2023-02-28T12:03:07;36.83;;;19.93;;
19560;SDS011;9927;47.792;10.616;2023-02-28T12:05:46;29.83;;;19.17;;
19560;SDS011;9927;47.792;10.616;2023-02-28T12:08:23;37.03;;;20.33;;
19560;SDS011;9927;47.792;10.616;2023-02-28T12:25:21;34.63;;;20.73;;
19560;SDS011;9927;47.792;10.616;2023-02-28T12:27:49;31.93;;;20.70;;
19560;SDS011;9927;47.792;10.616;2023-02-28T12:30:24;36.67;;;20.93;;
19560;SDS011;9927;47.792;10.616;2023-02-28T12:33:06;37.40;;;21.93;;
19560;SDS011;9927;47.792;10.616;2023-02-28T12:35:59;38.90;;;22.77;;
19560;SDS011;9927;47.792;10.616;2023-02-28T12:38:29;38.67;;;22.03;;
19560;SDS011;9927;47.792;10.616;2023-02-28T12:41:04;35.73;;;20.60;;
19560;SDS011;9927;47.792;10.616;2023-02-28T12:43:40;32.23;;;19.83;;
19560;SDS011;9927;47.792;10.616;2023-02-28T12:46:21;43.13;;;21.57;;
19560;SDS011;9927;47.792;10.616;2023-02-28T12:48:52;33.30;;;19.73;;
19560;SDS011;9927;47.792;10.616;2023-02-28T12:51:25;29.53;;;20.23;;
19560;SDS011;9927;47.792;10.616;2023-02-28T12:54:04;34.67;;;20.80;;
19560;SDS011;9927;47.792;10.616;2023-02-28T12:59:22;81.87;;;29.47;;
19560;SDS011;9927;47.792;10.616;2023-02-28T13:10:40;39.33;;;22.43;;
19560;SDS011;9927;47.792;10.616;2023-02-28T13:13:25;48.07;;;24.00;;
19560;SDS011;9927;47.792;10.616;2023-02-28T13:15:57;40.03;;;22.77;;
19560;SDS011;9927;47.792;10.616;2023-02-28T13:18:33;38.93;;;21.13;;
19560;SDS011;9927;47.792;10.616;2023-02-28T13:21:07;34.87;;;19.80;;
19560;SDS011;9927;47.792;10.616;2023-02-28T13:23:57;48.63;;;23.63;;
19560;SDS011;9927;47.792;10.616;2023-02-28T13:34:37;39.73;;;22.87;;
19560;SDS011;9927;47.792;10.616;2023-02-28T13:42:34;33.03;;;19.43;;
19560;SDS011;9927;47.792;10.616;2023-02-28T13:50:23;34.67;;;20.40;;
19560;SDS011;9927;47.792;10.616;2023-02-28T13:55:53;41.30;;;20.40;;
19560;SDS011;9927;47.792;10.616;2023-02-28T14:01:14;31.90;;;21.20;;
19560;SDS011;9927;47.792;10.616;2023-02-28T14:06:46;36.50;;;22.63;;
19560;SDS011;9927;47.792;10.616;2023-02-28T14:09:18;28.67;;;18.97;;
19560;SDS011;9927;47.792;10.616;2023-02-28T14:11:55;37.23;;;21.20;;
19560;SDS011;9927;47.792;10.616;2023-02-28T14:17:03;32.70;;;19.60;;
19560;SDS011;9927;47.792;10.616;2023-02-28T14:19:36;35.17;;;19.30;;
19560;SDS011;9927;47.792;10.616;2023-02-28T14:27:42;38.57;;;20.50;;
19560;SDS011;9927;47.792;10.616;2023-02-28T14:36:27;38.63;;;21.03;;
19560;SDS011;9927;47.792;10.616;2023-02-28T14:41:34;32.30;;;20.43;;
19560;SDS011;9927;47.792;10.616;2023-02-28T14:44:24;33.30;;;20.87;;
19560;SDS011;9927;47.792;10.616;2023-02-28T14:46:54;38.00;;;20.33;;
19560;SDS011;9927;47.792;10.616;2023-02-28T14:49:27;38.23;;;20.83;;
19560;SDS011;9927;47.792;10.616;2023-02-28T14:52:03;86.83;;;42.80;;
19560;SDS011;9927;47.792;10.616;2023-02-28T14:54:32;37.97;;;24.83;;
19560;SDS011;9927;47.792;10.616;2023-02-28T14:56:59;32.57;;;20.70;;
19560;SDS011;9927;47.792;10.616;2023-02-28T14:59:28;37.20;;;21.27;;
19560;SDS011;9927;47.792;10.616;2023-02-28T15:04:54;40.73;;;20.73;;
19560;SDS011;9927;47.792;10.616;2023-02-28T15:07:22;34.37;;;20.50;;
19560;SDS011;9927;47.792;10.616;2023-02-28T15:12:57;32.43;;;19.47;;
19560;SDS011;9927;47.792;10.616;2023-02-28T15:15:49;37.40;;;21.13;;
19560;SDS011;9927;47.792;10.616;2023-02-28T15:21:06;40.47;;;21.60;;
19560;SDS011;9927;47.792;10.616;2023-02-28T15:23:38;36.63;;;21.83;;
19560;SDS011;9927;47.792;10.616;2023-02-28T15:26:13;25.27;;;18.73;;
19560;SDS011;9927;47.792;10.616;2023-02-28T15:28:43;29.43;;;20.00;;
19560;SDS011;9927;47.792;10.616;2023-02-28T15:31:21;37.37;;;20.80;;
19560;SDS011;9927;47.792;10.616;2023-02-28T15:33:56;34.50;;;20.63;;
19560;SDS011;9927;47.792;10.616;2023-02-28T15:36:29;29.57;;;21.27;;
19560;SDS011;9927;47.792;10.616;2023-02-28T15:39:00;36.93;;;21.37;;
19560;SDS011;9927;47.792;10.616;2023-02-28T15:41:41;33.90;;;21.23;;
19560;SDS011;9927;47.792;10.616;2023-02-28T15:44:25;36.50;;;21.63;;
19560;SDS011;9927;47.792;10.616;2023-02-28T15:49:40;43.07;;;21.67;;
19560;SDS011;9927;47.792;10.616;2023-02-28T15:52:19;31.80;;;20.50;;
19560;SDS011;9927;47.792;10.616;2023-02-28T15:54:50;38.53;;;22.17;;
19560;SDS011;9927;47.792;10.616;2023-02-28T15:57:20;38.63;;;21.43;;
19560;SDS011;9927;47.792;10.616;2023-02-28T15:59:51;44.33;;;24.03;;
19560;SDS011;9927;47.792;10.616;2023-02-28T16:02:35;41.10;;;23.57;;
19560;SDS011;9927;47.792;10.616;2023-02-28T16:07:40;42.57;;;23.70;;
19560;SDS011;9927;47.792;10.616;2023-02-28T16:10:15;37.13;;;22.67;;
19560;SDS011;9927;47.792;10.616;2023-02-28T16:12:43;40.80;;;24.07;;
19560;SDS011;9927;47.792;10.616;2023-02-28T16:17:48;37.63;;;21.70;;
19560;SDS011;9927;47.792;10.616;2023-02-28T16:20:16;42.43;;;23.27;;
19560;SDS011;9927;47.792;10.616;2023-02-28T16:22:49;38.60;;;23.20;;
19560;SDS011;9927;47.792;10.616;2023-02-28T16:25:18;39.77;;;23.33;;
19560;SDS011;9927;47.792;10.616;2023-02-28T16:27:53;34.80;;;22.00;;
19560;SDS011;9927;47.792;10.616;2023-02-28T16:30:21;44.80;;;24.13;;
19560;SDS011;9927;47.792;10.616;2023-02-28T16:32:54;41.17;;;23.97;;
19560;SDS011;9927;47.792;10.616;2023-02-28T16:35:22;43.00;;;24.50;;
19560;SDS011;9927;47.792;10.616;2023-02-28T16:37:50;38.67;;;23.50;;
19560;SDS011;9927;47.792;10.616;2023-02-28T16:40:19;46.57;;;24.97;;
19560;SDS011;9927;47.792;10.616;2023-02-28T16:42:50;42.20;;;24.53;;
19560;SDS011;9927;47.792;10.616;2023-02-28T16:45:24;49.80;;;25.07;;
19560;SDS011;9927;47.792;10.616;2023-02-28T16:47:53;49.13;;;25.40;;
19560;SDS011;9927;47.792;10.616;2023-02-28T16:50:22;47.50;;;25.07;;
19560;SDS011;9927;47.792;10.616;2023-02-28T16:52:51;59.33;;;27.90;;
19560;SDS011;9927;47.792;10.616;2023-02-28T16:55:19;46.70;;;25.47;;
19560;SDS011;9927;47.792;10.616;2023-02-28T16:57:56;50.57;;;26.43;;
19560;SDS011;9927;47.792;10.616;2023-02-28T17:00:25;43.37;;;24.83;;
19560;SDS011;9927;47.792;10.616;2023-02-28T17:02:54;41.47;;;25.80;;
19560;SDS011;9927;47.792;10.616;2023-02-28T17:05:22;35.73;;;24.27;;
19560;SDS011;9927;47.792;10.616;2023-02-28T17:07:50;39.43;;;25.10;;
19560;SDS011;9927;47.792;10.616;2023-02-28T17:10:19;49.20;;;27.83;;
19560;SDS011;9927;47.792;10.616;2023-02-28T17:12:49;48.20;;;26.97;;
19560;SDS011;9927;47.792;10.616;2023-02-28T17:15:18;59.07;;;29.93;;
19560;SDS011;9927;47.792;10.616;2023-02-28T17:17:47;62.87;;;31.40;;
19560;SDS011;9927;47.792;10.616;2023-02-28T17:20:19;62.13;;;31.03;;
19560;SDS011;9927;47.792;10.616;2023-02-28T17:22:51;61.43;;;30.43;;
19560;SDS011;9927;47.792;10.616;2023-02-28T17:25:20;68.30;;;31.97;;
19560;SDS011;9927;47.792;10.616;2023-02-28T17:27:47;65.07;;;31.83;;
19560;SDS011;9927;47.792;10.616;2023-02-28T17:30:22;57.20;;;30.20;;
19560;SDS011;9927;47.792;10.616;2023-02-28T17:32:51;52.37;;;31.10;;
19560;SDS011;9927;47.792;10.616;2023-02-28T17:35:24;66.53;;;32.73;;
19560;SDS011;9927;47.792;10.616;2023-02-28T17:37:53;63.17;;;32.17;;
19560;SDS011;9927;47.792;10.616;2023-02-28T17:40:21;61.67;;;33.10;;
19560;SDS011;9927;47.792;10.616;2023-02-28T17:42:50;71.43;;;33.63;;
19560;SDS011;9927;47.792;10.616;2023-02-28T17:45:19;69.83;;;31.57;;
19560;SDS011;9927;47.792;10.616;2023-02-28T17:47:47;55.97;;;31.60;;
19560;SDS011;9927;47.792;10.616;2023-02-28T17:50:17;58.17;;;30.37;;
19560;SDS011;9927;47.792;10.616;2023-02-28T17:52:49;56.00;;;31.20;;
19560;SDS011;9927;47.792;10.616;2023-02-28T17:55:17;58.13;;;30.10;;
19560;SDS011;9927;47.792;10.616;2023-02-28T17:57:45;66.97;;;33.00;;
19560;SDS011;9927;47.792;10.616;2023-02-28T18:00:15;54.10;;;30.27;;
19560;SDS011;9927;47.792;10.616;2023-02-28T18:02:44;59.70;;;30.13;;
19560;SDS011;9927;47.792;10.616;2023-02-28T18:05:11;64.67;;;31.30;;
19560;SDS011;9927;47.792;10.616;2023-02-28T18:07:39;54.40;;;29.57;;
19560;SDS011;9927;47.792;10.616;2023-02-28T18:10:10;53.47;;;30.30;;
19560;SDS011;9927;47.792;10.616;2023-02-28T18:12:46;55.83;;;30.73;;
19560;SDS011;9927;47.792;10.616;2023-02-28T18:15:15;59.90;;;30.50;;
19560;SDS011;9927;47.792;10.616;2023-02-28T18:17:43;55.67;;;30.27;;
19560;SDS011;9927;47.792;10.616;2023-02-28T18:20:10;50.47;;;29.27;;
19560;SDS011;9927;47.792;10.616;2023-02-28T18:22:38;54.53;;;29.23;;
19560;SDS011;9927;47.792;10.616;2023-02-28T18:25:07;59.70;;;29.13;;
19560;SDS011;9927;47.792;10.616;2023-02-28T18:27:40;47.90;;;25.87;;
19560;SDS011;9927;47.792;10.616;2023-02-28T18:30:29;47.13;;;26.53;;
19560;SDS011;9927;47.792;10.616;2023-02-28T18:32:58;48.97;;;27.13;;
19560;SDS011;9927;47.792;10.616;2023-02-28T18:35:26;51.77;;;26.87;;
19560;SDS011;9927;47.792;10.616;2023-02-28T18:38:05;51.80;;;26.20;;
19560;SDS011;9927;47.792;10.616;2023-02-28T18:40:35;51.73;;;25.53;;
19560;SDS011;9927;47.792;10.616;2023-02-28T18:43:02;45.27;;;26.27;;
19560;SDS011;9927;47.792;10.616;2023-02-28T18:45:30;46.60;;;25.50;;
19560;SDS011;9927;47.792;10.616;2023-02-28T18:48:01;44.23;;;24.93;;
19560;SDS011;9927;47.792;10.616;2023-02-28T18:50:29;44.43;;;24.77;;
19560;SDS011;9927;47.792;10.616;2023-02-28T18:52:56;41.53;;;24.57;;
19560;SDS011;9927;47.792;10.616;2023-02-28T18:55:24;39.53;;;23.07;;
19560;SDS011;9927;47.792;10.616;2023-02-28T18:57:53;39.63;;;23.13;;
19560;SDS011;9927;47.792;10.616;2023-02-28T19:00:20;39.77;;;23.90;;
19560;SDS011;9927;47.792;10.616;2023-02-28T19:02:48;40.97;;;24.93;;
19560;SDS011;9927;47.792;10.616;2023-02-28T19:05:16;46.97;;;25.70;;
19560;SDS011;9927;47.792;10.616;2023-02-28T19:07:45;51.40;;;23.83;;
19560;SDS011;9927;47.792;10.616;2023-02-28T19:10:12;46.23;;;23.90;;
19560;SDS011;9927;47.792;10.616;2023-02-28T19:12:40;36.07;;;23.07;;
19560;SDS011;9927;47.792;10.616;2023-02-28T19:15:11;44.13;;;24.83;;
19560;SDS011;9927;47.792;10.616;2023-02-28T19:17:38;43.23;;;24.37;;
19560;SDS011;9927;47.792;10.616;2023-02-28T19:20:06;48.33;;;25.70;;
19560;SDS011;9927;47.792;10.616;2023-02-28T19:22:35;58.00;;;26.73;;
19560;SDS011;9927;47.792;10.616;2023-02-28T19:25:05;57.80;;;28.57;;
19560;SDS011;9927;47.792;10.616;2023-02-28T19:27:33;67.70;;;28.17;;
19560;SDS011;9927;47.792;10.616;2023-02-28T19:30:00;59.47;;;28.67;;
19560;SDS011;9927;47.792;10.616;2023-02-28T19:32:29;48.73;;;26.50;;
19560;SDS011;9927;47.792;10.616;2023-02-28T19:34:57;55.50;;;27.97;;
19560;SDS011;9927;47.792;10.616;2023-02-28T19:37:24;50.20;;;27.17;;
19560;SDS011;9927;47.792;10.616;2023-02-28T19:39:51;63.30;;;28.20;;
19560;SDS011;9927;47.792;10.616;2023-02-28T19:42:22;58.43;;;30.00;;
19560;SDS011;9927;47.792;10.616;2023-02-28T19:44:50;41.67;;;26.90;;
19560;SDS011;9927;47.792;10.616;2023-02-28T19:47:17;56.70;;;30.63;;
19560;SDS011;9927;47.792;10.616;2023-02-28T19:49:44;67.83;;;34.40;;
19560;SDS011;9927;47.792;10.616;2023-02-28T19:52:11;64.93;;;36.10;;
19560;SDS011;9927;47.792;10.616;2023-02-28T19:54:41;59.37;;;32.20;;
19560;SDS011;9927;47.792;10.616;2023-02-28T19:57:08;79.13;;;37.10;;
19560;SDS011;9927;47.792;10.616;2023-02-28T19:59:35;74.03;;;36.97;;
19560;SDS011;9927;47.792;10.616;2023-02-28T20:02:05;74.07;;;37.77;;
19560;SDS011;9927;47.792;10.616;2023-02-28T20:04:40;74.80;;;40.20;;
19560;SDS011;9927;47.792;10.616;2023-02-28T20:07:08;70.03;;;37.50;;
19560;SDS011;9927;47.792;10.616;2023-02-28T20:09:35;75.00;;;39.70;;
19560;SDS011;9927;47.792;10.616;2023-02-28T20:12:02;72.70;;;37.63;;
19560;SDS011;9927;47.792;10.616;2023-02-28T20:14:34;71.80;;;38.53;;
19560;SDS011;9927;47.792;10.616;2023-02-28T20:17:02;60.23;;;36.63;;
19560;SDS011;9927;47.792;10.616;2023-02-28T20:19:29;86.83;;;42.63;;
19560;SDS011;9927;47.792;10.616;2023-02-28T20:21:56;77.73;;;41.60;;
19560;SDS011;9927;47.792;10.616;2023-02-28T20:24:24;74.00;;;41.00;;
19560;SDS011;9927;47.792;10.616;2023-02-28T20:26:52;68.40;;;37.27;;
19560;SDS011;9927;47.792;10.616;2023-02-28T20:29:19;64.83;;;36.33;;
19560;SDS011;9927;47.792;10.616;2023-02-28T20:31:46;64.00;;;36.03;;
19560;SDS011;9927;47.792;10.616;2023-02-28T20:34:14;70.33;;;37.93;;
19560;SDS011;9927;47.792;10.616;2023-02-28T20:36:43;68.37;;;36.77;;
19560;SDS011;9927;47.792;10.616;2023-02-28T20:39:10;66.07;;;35.80;;
19560;SDS011;9927;47.792;10.616;2023-02-28T20:41:39;65.80;;;36.97;;